Time;durP1;ratioP1;P1;durP2;ratioP2;P2;SDS_P1;SDS_P2;PMS_P1;PMS_P2;Temp;Humidity;BMP_temperature;BMP_pressure;BME280_temperature;BME280_humidity;BME280_pressure;Samples;Min_cycle;Max_cycle;Signal;HPM_P1;HPM_P2
2021/08/15 00:01:05;;;;;;;;;29.00;27.00;;;;;;;;5033055;28;45336;-90
2021/08/15 00:03:30;;;;;;;;;26.50;24.25;;;;;;;;5012003;28;48196;-90
2021/08/15 00:05:55;;;;;;;;;28.25;24.00;;;;;;;;5020172;28;45718;-89
2021/08/15 00:08:20;;;;;;;;;25.67;23.67;;;;;;;;5015795;28;45601;-89
2021/08/15 00:10:45;;;;;;;;;28.67;23.67;;;;;;;;5048162;28;45330;-89
2021/08/15 00:13:11;;;;;;;;;29.00;26.00;;;;;;;;5038847;28;45771;-89
2021/08/15 00:15:36;;;;;;;;;26.00;23.00;;;;;;;;5052708;28;45391;-90
2021/08/15 00:18:01;;;;;;;;;28.00;25.33;;;;;;;;5048851;28;45489;-90
2021/08/15 00:20:26;;;;;;;;;28.75;25.00;;;;;;;;5053712;28;45521;-90
2021/08/15 00:22:52;;;;;;;;;30.75;25.25;;;;;;;;5035171;28;47941;-90
2021/08/15 00:25:18;;;;;;;;;31.33;24.33;;;;;;;;5059501;27;45370;-90
2021/08/15 00:27:43;;;;;;;;;25.75;22.50;;;;;;;;5021817;28;45547;-90
2021/08/15 00:30:09;;;;;;;;;27.75;26.75;;;;;;;;5042255;28;45358;-90
2021/08/15 00:32:35;;;;;;;;;30.25;26.50;;;;;;;;5051432;28;46494;-90
2021/08/15 00:35:02;;;;;;;;;29.50;27.00;;;;;;;;5042123;28;45376;-89
2021/08/15 00:37:28;;;;;;;;;30.75;24.50;;;;;;;;5021369;28;53561;-90
2021/08/15 00:39:53;;;;;;;;;29.25;25.25;;;;;;;;5036713;28;45545;-90
2021/08/15 00:42:18;;;;;;;;;29.33;25.67;;;;;;;;5045418;28;46889;-89
2021/08/15 00:44:44;;;;;;;;;28.67;25.67;;;;;;;;5070911;28;45452;-89
2021/08/15 00:47:09;;;;;;;;;32.50;27.75;;;;;;;;5032944;28;45435;-89
2021/08/15 00:49:34;;;;;;;;;31.00;25.75;;;;;;;;5038798;28;45388;-90
2021/08/15 00:52:00;;;;;;;;;30.00;23.00;;;;;;;;5047001;28;45658;-89
2021/08/15 00:54:25;;;;;;;;;32.33;26.67;;;;;;;;5046524;28;45854;-90
2021/08/15 00:56:52;;;;;;;;;27.00;22.00;;;;;;;;5056332;28;45319;-90
2021/08/15 00:59:18;;;;;;;;;28.00;24.75;;;;;;;;5057450;28;45468;-90
2021/08/15 01:01:43;;;;;;;;;26.50;24.50;;;;;;;;5038507;28;47189;-90
2021/08/15 01:04:08;;;;;;;;;27.00;23.00;;;;;;;;5044274;28;45668;-90
2021/08/15 01:06:34;;;;;;;;;29.75;25.00;;;;;;;;5050999;28;45469;-90
2021/08/15 01:09:03;;;;;;;;;27.75;22.50;;;;;;;;5043233;28;45434;-89
2021/08/15 01:11:31;;;;;;;;;25.50;21.25;;;;;;;;5018356;28;47255;-90
2021/08/15 01:13:56;;;;;;;;;24.00;21.00;;;;;;;;5033212;28;45514;-90
2021/08/15 01:16:22;;;;;;;;;23.75;19.75;;;;;;;;5035624;28;45525;-90
2021/08/15 01:18:47;;;;;;;;;23.00;22.33;;;;;;;;5036412;28;45403;-89
2021/08/15 01:21:15;;;;;;;;;23.33;22.00;;;;;;;;5033066;28;45654;-89
2021/08/15 01:23:43;;;;;;;;;19.75;18.25;;;;;;;;5024427;28;45453;-89
2021/08/15 01:26:09;;;;;;;;;22.25;20.50;;;;;;;;5035916;28;45403;-90
2021/08/15 01:28:34;;;;;;;;;27.00;21.00;;;;;;;;5034082;28;45416;-90
2021/08/15 01:31:00;;;;;;;;;19.50;19.00;;;;;;;;5017857;28;47007;-90
2021/08/15 01:33:30;;;;;;;;;24.25;20.00;;;;;;;;5034575;28;45558;-90
2021/08/15 01:35:55;;;;;;;;;22.00;18.25;;;;;;;;5034388;28;45449;-89
2021/08/15 01:38:22;;;;;;;;;23.25;21.50;;;;;;;;5008212;28;45519;-90
2021/08/15 01:40:47;;;;;;;;;23.75;19.50;;;;;;;;5012189;28;48441;-90
2021/08/15 01:43:12;;;;;;;;;27.25;23.00;;;;;;;;5034380;28;45328;-90
2021/08/15 01:45:38;;;;;;;;;24.00;22.67;;;;;;;;5027395;28;45632;-90
2021/08/15 01:48:03;;;;;;;;;22.67;21.00;;;;;;;;5013691;28;45455;-89
2021/08/15 01:50:28;;;;;;;;;24.50;20.75;;;;;;;;5036684;28;45442;-89
2021/08/15 01:52:53;;;;;;;;;21.33;19.00;;;;;;;;5032280;28;47877;-89
2021/08/15 01:55:19;;;;;;;;;21.33;19.67;;;;;;;;5032140;28;45534;-90
2021/08/15 01:57:44;;;;;;;;;22.00;21.00;;;;;;;;5008261;28;45413;-90
2021/08/15 02:00:09;;;;;;;;;24.00;22.00;;;;;;;;5033350;28;45771;-89
2021/08/15 02:02:35;;;;;;;;;18.00;13.50;;;;;;;;5034805;28;45500;-89
2021/08/15 02:05:00;;;;;;;;;26.25;20.25;;;;;;;;5034603;28;45445;-89
2021/08/15 02:07:25;;;;;;;;;21.00;17.33;;;;;;;;5034417;28;45482;-90
2021/08/15 02:09:50;;;;;;;;;20.33;17.67;;;;;;;;5034330;28;48015;-90
2021/08/15 02:12:15;;;;;;;;;19.33;16.00;;;;;;;;5052468;28;45471;-90
2021/08/15 02:14:41;;;;;;;;;22.67;19.00;;;;;;;;5054047;28;45322;-89
2021/08/15 02:17:06;;;;;;;;;22.25;20.00;;;;;;;;5036546;28;45471;-90
2021/08/15 02:19:33;;;;;;;;;20.67;18.67;;;;;;;;5036858;28;48342;-90
2021/08/15 02:21:58;;;;;;;;;22.25;18.50;;;;;;;;5056187;28;45454;-90
2021/08/15 02:24:23;;;;;;;;;22.00;18.33;;;;;;;;5043475;28;45510;-90
2021/08/15 02:26:49;;;;;;;;;24.00;19.67;;;;;;;;5054556;28;45507;-89
2021/08/15 02:29:14;;;;;;;;;25.00;20.00;;;;;;;;5052044;28;46903;-89
2021/08/15 02:31:39;;;;;;;;;23.00;20.25;;;;;;;;5034260;28;45454;-90
2021/08/15 02:34:04;;;;;;;;;22.75;20.25;;;;;;;;5029556;28;45449;-89
2021/08/15 02:36:30;;;;;;;;;21.67;18.00;;;;;;;;5039020;28;45281;-89
2021/08/15 02:38:55;;;;;;;;;18.00;15.67;;;;;;;;5048378;28;49660;-90
2021/08/15 02:41:20;;;;;;;;;21.00;15.67;;;;;;;;5050667;28;45508;-89
2021/08/15 02:43:45;;;;;;;;;20.00;14.33;;;;;;;;5036699;28;45501;-89
2021/08/15 02:46:10;;;;;;;;;19.25;15.00;;;;;;;;5053371;28;45544;-90
2021/08/15 02:48:37;;;;;;;;;20.67;14.67;;;;;;;;5053044;28;45392;-90
2021/08/15 02:51:03;;;;;;;;;18.25;15.75;;;;;;;;5044403;28;45692;-89
2021/08/15 02:53:28;;;;;;;;;22.33;17.67;;;;;;;;5055706;28;45313;-90
2021/08/15 02:55:53;;;;;;;;;18.00;16.00;;;;;;;;5047203;28;45440;-90
2021/08/15 02:58:18;;;;;;;;;24.00;18.33;;;;;;;;5045411;28;46119;-90
2021/08/15 03:00:44;;;;;;;;;19.25;17.25;;;;;;;;5030036;28;45676;-91
2021/08/15 03:03:09;;;;;;;;;17.67;14.33;;;;;;;;5033440;28;45502;-92
2021/08/15 03:05:34;;;;;;;;;18.50;17.00;;;;;;;;5051713;28;45426;-90
2021/08/15 03:07:59;;;;;;;;;20.67;18.67;;;;;;;;5037288;28;48106;-91
2021/08/15 03:10:25;;;;;;;;;16.33;13.00;;;;;;;;5052029;28;46090;-91
2021/08/15 03:12:50;;;;;;;;;17.00;16.75;;;;;;;;5065734;28;45653;-90
2021/08/15 03:15:15;;;;;;;;;20.33;16.33;;;;;;;;5047046;28;46101;-90
2021/08/15 03:17:40;;;;;;;;;18.50;15.00;;;;;;;;5053051;28;46456;-90
2021/08/15 03:20:06;;;;;;;;;20.67;19.33;;;;;;;;5052609;28;45288;-89
2021/08/15 03:22:31;;;;;;;;;17.00;16.25;;;;;;;;5049729;28;45309;-89
2021/08/15 03:24:56;;;;;;;;;20.33;16.00;;;;;;;;5029376;28;45366;-89
2021/08/15 03:27:22;;;;;;;;;18.50;14.75;;;;;;;;5053597;28;45612;-90
2021/08/15 03:29:47;;;;;;;;;19.00;16.67;;;;;;;;5045810;28;45652;-89
2021/08/15 03:32:12;;;;;;;;;14.00;13.00;;;;;;;;5033988;28;45923;-90
2021/08/15 03:34:37;;;;;;;;;16.00;14.25;;;;;;;;5052257;28;45617;-90
2021/08/15 03:37:03;;;;;;;;;17.25;13.25;;;;;;;;5055531;28;45598;-89
2021/08/15 03:39:31;;;;;;;;;18.75;14.50;;;;;;;;5052311;28;45504;-90
2021/08/15 03:42:00;;;;;;;;;16.00;14.50;;;;;;;;5041714;28;45498;-90
2021/08/15 03:44:26;;;;;;;;;16.00;16.00;;;;;;;;5045334;28;45671;-89
2021/08/15 03:46:51;;;;;;;;;18.75;13.25;;;;;;;;5051330;28;47385;-89
2021/08/15 03:49:18;;;;;;;;;18.00;15.67;;;;;;;;5053393;27;45494;-89
2021/08/15 03:51:43;;;;;;;;;16.75;15.00;;;;;;;;5048462;28;45547;-89
2021/08/15 03:54:09;;;;;;;;;17.25;15.00;;;;;;;;5024586;28;45477;-89
2021/08/15 03:56:34;;;;;;;;;19.00;14.00;;;;;;;;5035901;28;47117;-90
2021/08/15 03:58:59;;;;;;;;;13.67;12.67;;;;;;;;5054140;28;45422;-90
2021/08/15 04:01:24;;;;;;;;;15.25;15.25;;;;;;;;5033359;28;45899;-89
2021/08/15 04:03:49;;;;;;;;;16.67;13.00;;;;;;;;5052562;28;45313;-90
2021/08/15 04:06:21;;;;;;;;;16.33;15.00;;;;;;;;5036090;28;48216;-89
2021/08/15 04:08:46;;;;;;;;;14.75;13.75;;;;;;;;5052259;28;45837;-90
2021/08/15 04:11:11;;;;;;;;;21.75;17.75;;;;;;;;5054170;28;45327;-90
2021/08/15 04:13:36;;;;;;;;;20.00;16.00;;;;;;;;5034890;28;45591;-90
2021/08/15 04:16:02;;;;;;;;;19.67;15.00;;;;;;;;5054348;28;46089;-90
2021/08/15 04:18:27;;;;;;;;;14.67;13.00;;;;;;;;5036261;28;45464;-89
2021/08/15 04:20:52;;;;;;;;;16.50;13.50;;;;;;;;5030840;28;45407;-90
2021/08/15 04:23:17;;;;;;;;;17.67;15.33;;;;;;;;5029078;28;45329;-89
2021/08/15 04:25:43;;;;;;;;;14.67;13.00;;;;;;;;5045131;28;45583;-90
2021/08/15 04:28:08;;;;;;;;;16.50;12.75;;;;;;;;5034777;28;45408;-90
2021/08/15 04:30:33;;;;;;;;;19.25;13.75;;;;;;;;5046154;28;45632;-89
2021/08/15 04:32:58;;;;;;;;;15.00;13.33;;;;;;;;5037174;28;45553;-90
2021/08/15 04:35:23;;;;;;;;;12.00;12.00;;;;;;;;5047716;28;45518;-90
2021/08/15 04:37:49;;;;;;;;;13.00;12.00;;;;;;;;5045736;28;45447;-89
2021/08/15 04:40:14;;;;;;;;;15.00;13.00;;;;;;;;5038339;28;45524;-89
2021/08/15 04:42:39;;;;;;;;;16.50;13.50;;;;;;;;5056191;28;45365;-90
2021/08/15 04:45:05;;;;;;;;;15.00;13.50;;;;;;;;5027343;28;47075;-90
2021/08/15 04:47:30;;;;;;;;;12.75;11.25;;;;;;;;5057028;27;45394;-90
2021/08/15 04:49:55;;;;;;;;;18.67;13.00;;;;;;;;5051181;28;45646;-90
2021/08/15 04:52:20;;;;;;;;;16.33;13.33;;;;;;;;5053916;28;45287;-90
2021/08/15 04:54:46;;;;;;;;;13.25;12.00;;;;;;;;5043583;28;46976;-90
2021/08/15 04:57:11;;;;;;;;;18.67;13.67;;;;;;;;5029124;28;45253;-90
2021/08/15 04:59:36;;;;;;;;;17.67;11.33;;;;;;;;5045753;28;45279;-91
2021/08/15 05:02:03;;;;;;;;;22.00;12.00;;;;;;;;5051920;28;48344;-89
2021/08/15 05:04:28;;;;;;;;;11.75;11.50;;;;;;;;5054443;28;46631;-90
2021/08/15 05:06:54;;;;;;;;;13.67;13.67;;;;;;;;5039508;28;45909;-89
2021/08/15 05:09:19;;;;;;;;;17.25;12.25;;;;;;;;5051819;28;45470;-90
2021/08/15 05:11:44;;;;;;;;;16.67;13.67;;;;;;;;5048863;28;45452;-90
2021/08/15 05:14:09;;;;;;;;;14.50;12.25;;;;;;;;5057926;28;46220;-90
2021/08/15 05:16:35;;;;;;;;;12.50;12.50;;;;;;;;5053281;28;45511;-90
2021/08/15 05:19:00;;;;;;;;;15.00;12.33;;;;;;;;5043789;28;45577;-89
2021/08/15 05:21:25;;;;;;;;;15.75;13.75;;;;;;;;5052581;28;45352;-90
2021/08/15 05:23:50;;;;;;;;;13.00;11.67;;;;;;;;5043549;28;45384;-89
2021/08/15 05:26:16;;;;;;;;;19.25;13.75;;;;;;;;5035708;28;46246;-90
2021/08/15 05:28:41;;;;;;;;;14.50;14.00;;;;;;;;5056420;28;46006;-89
2021/08/15 05:31:06;;;;;;;;;18.67;13.00;;;;;;;;5052655;28;45448;-91
2021/08/15 05:33:31;;;;;;;;;15.00;13.00;;;;;;;;5050179;28;45446;-90
2021/08/15 05:35:57;;;;;;;;;18.75;13.50;;;;;;;;5044472;28;45524;-89
2021/08/15 05:38:22;;;;;;;;;16.00;13.67;;;;;;;;5055653;28;45358;-90
2021/08/15 05:40:47;;;;;;;;;16.33;14.00;;;;;;;;5037759;28;45929;-90
2021/08/15 05:43:12;;;;;;;;;14.67;14.00;;;;;;;;5054239;28;45576;-89
2021/08/15 05:45:38;;;;;;;;;16.75;14.00;;;;;;;;5038147;28;46110;-90
2021/08/15 05:48:06;;;;;;;;;17.25;13.50;;;;;;;;5043232;28;45603;-89
2021/08/15 05:50:31;;;;;;;;;15.75;14.00;;;;;;;;5045931;28;45244;-90
2021/08/15 05:52:57;;;;;;;;;14.25;11.25;;;;;;;;5042137;28;45507;-89
2021/08/15 05:55:22;;;;;;;;;22.00;15.33;;;;;;;;5051441;28;45624;-90
2021/08/15 05:57:47;;;;;;;;;17.00;14.33;;;;;;;;5038269;28;45385;-89
2021/08/15 06:00:12;;;;;;;;;17.00;12.00;;;;;;;;5043345;28;45467;-90
2021/08/15 06:02:38;;;;;;;;;13.00;13.00;;;;;;;;5053351;28;47354;-89
2021/08/15 06:05:03;;;;;;;;;14.50;14.00;;;;;;;;5051548;28;45516;-89
2021/08/15 06:07:28;;;;;;;;;13.25;12.75;;;;;;;;5034819;28;45750;-90
2021/08/15 06:09:53;;;;;;;;;15.33;12.00;;;;;;;;5047787;28;45318;-90
2021/08/15 06:12:19;;;;;;;;;17.33;12.67;;;;;;;;5052639;28;46693;-90
2021/08/15 06:14:44;;;;;;;;;14.00;12.00;;;;;;;;5055243;28;45471;-90
2021/08/15 06:17:09;;;;;;;;;17.67;12.33;;;;;;;;5021656;28;45394;-90
2021/08/15 06:19:34;;;;;;;;;13.00;12.75;;;;;;;;5032640;28;45508;-90
2021/08/15 06:22:00;;;;;;;;;12.67;11.67;;;;;;;;5047271;28;46702;-90
2021/08/15 06:24:25;;;;;;;;;12.25;10.25;;;;;;;;5040446;28;45530;-90
2021/08/15 06:26:51;;;;;;;;;14.00;12.50;;;;;;;;5051872;28;45999;-90
2021/08/15 06:29:16;;;;;;;;;14.00;13.00;;;;;;;;5032008;28;45383;-90
2021/08/15 06:31:42;;;;;;;;;10.00;9.00;;;;;;;;5045215;28;46601;-90
2021/08/15 06:34:08;;;;;;;;;13.25;11.00;;;;;;;;5033082;28;45527;-91
2021/08/15 06:36:33;;;;;;;;;14.00;10.50;;;;;;;;5051904;28;45557;-90
2021/08/15 06:38:58;;;;;;;;;10.67;9.00;;;;;;;;5034152;28;45478;-90
2021/08/15 06:41:23;;;;;;;;;10.00;8.00;;;;;;;;5035954;28;48103;-90
2021/08/15 06:43:48;;;;;;;;;12.00;10.00;;;;;;;;5037278;28;45428;-90
2021/08/15 06:46:14;;;;;;;;;10.33;10.00;;;;;;;;5051811;28;45516;-90
2021/08/15 06:48:40;;;;;;;;;12.00;10.00;;;;;;;;5052651;28;45533;-90
2021/08/15 06:51:05;;;;;;;;;11.00;9.25;;;;;;;;5039572;28;47142;-90
2021/08/15 06:53:31;;;;;;;;;9.75;8.00;;;;;;;;5044741;28;45311;-90
2021/08/15 06:56:01;;;;;;;;;11.25;8.50;;;;;;;;5050110;28;45541;-90
2021/08/15 06:58:26;;;;;;;;;8.50;8.00;;;;;;;;5045290;28;45481;-91
2021/08/15 07:00:52;;;;;;;;;11.25;7.50;;;;;;;;5039360;28;45528;-90
2021/08/15 07:03:17;;;;;;;;;7.50;5.75;;;;;;;;5032809;28;45974;-90
2021/08/15 07:05:42;;;;;;;;;9.00;8.00;;;;;;;;5051321;28;45343;-90
2021/08/15 07:08:08;;;;;;;;;9.25;6.75;;;;;;;;5032026;28;53608;-90
2021/08/15 07:10:33;;;;;;;;;9.75;8.00;;;;;;;;5033354;28;48610;-89
2021/08/15 07:12:58;;;;;;;;;9.33;6.33;;;;;;;;5052312;28;44864;-89
2021/08/15 07:15:28;;;;;;;;;14.25;7.75;;;;;;;;5045193;28;45821;-90
2021/08/15 07:17:53;;;;;;;;;9.25;6.50;;;;;;;;5043579;28;45564;-90
2021/08/15 07:20:19;;;;;;;;;8.00;6.00;;;;;;;;5044403;28;46113;-91
2021/08/15 07:22:44;;;;;;;;;9.00;7.00;;;;;;;;5048790;28;45675;-90
2021/08/15 07:25:10;;;;;;;;;9.25;6.25;;;;;;;;5051494;28;45444;-91
2021/08/15 07:27:35;;;;;;;;;8.00;6.75;;;;;;;;5045111;28;45473;-90
2021/08/15 07:30:00;;;;;;;;;7.75;7.50;;;;;;;;5034433;28;46294;-90
2021/08/15 07:32:26;;;;;;;;;7.25;6.25;;;;;;;;5051598;28;45632;-89
2021/08/15 07:34:51;;;;;;;;;9.75;8.00;;;;;;;;5044330;28;45686;-89
2021/08/15 07:37:16;;;;;;;;;4.00;3.75;;;;;;;;5040784;28;45377;-90
2021/08/15 07:39:41;;;;;;;;;4.67;4.67;;;;;;;;5034541;28;47847;-89
2021/08/15 07:42:06;;;;;;;;;9.00;6.75;;;;;;;;5048361;28;45345;-89
2021/08/15 07:44:32;;;;;;;;;7.75;6.75;;;;;;;;5046766;28;45384;-89
2021/08/15 07:46:57;;;;;;;;;9.33;6.33;;;;;;;;5023060;28;45621;-89
2021/08/15 07:49:22;;;;;;;;;8.00;7.00;;;;;;;;5049865;28;46507;-89
2021/08/15 07:51:47;;;;;;;;;6.00;6.00;;;;;;;;5048929;28;45687;-89
2021/08/15 07:54:13;;;;;;;;;7.50;6.75;;;;;;;;5047660;28;45474;-89
2021/08/15 07:56:38;;;;;;;;;13.75;8.00;;;;;;;;5049996;28;45439;-90
2021/08/15 07:59:03;;;;;;;;;7.00;6.75;;;;;;;;5048949;28;45752;-89
2021/08/15 08:01:29;;;;;;;;;7.00;7.00;;;;;;;;5041833;28;45520;-89
2021/08/15 08:03:54;;;;;;;;;8.00;8.00;;;;;;;;5050596;28;45720;-89
2021/08/15 08:06:19;;;;;;;;;7.00;6.00;;;;;;;;5051259;28;45541;-90
2021/08/15 08:08:44;;;;;;;;;6.33;6.33;;;;;;;;5035516;28;46542;-89
2021/08/15 08:11:09;;;;;;;;;7.67;7.67;;;;;;;;5048173;28;45501;-89
2021/08/15 08:13:36;;;;;;;;;11.75;8.00;;;;;;;;5040806;28;45567;-90
2021/08/15 08:16:01;;;;;;;;;10.50;7.00;;;;;;;;5047731;28;45485;-90
2021/08/15 08:18:27;;;;;;;;;7.50;6.00;;;;;;;;5045280;28;46287;-89
2021/08/15 08:20:52;;;;;;;;;7.00;7.00;;;;;;;;5029784;28;45890;-90
2021/08/15 08:23:17;;;;;;;;;8.50;7.50;;;;;;;;5039772;28;45478;-89
2021/08/15 08:25:44;;;;;;;;;9.75;8.75;;;;;;;;5049366;28;45510;-90
2021/08/15 08:28:10;;;;;;;;;7.25;6.25;;;;;;;;5049186;28;46500;-89
2021/08/15 08:30:35;;;;;;;;;11.25;9.00;;;;;;;;5051207;28;45410;-89
2021/08/15 08:33:00;;;;;;;;;11.25;10.00;;;;;;;;5049006;28;45695;-90
2021/08/15 08:35:26;;;;;;;;;9.50;7.00;;;;;;;;5029629;28;45481;-90
2021/08/15 08:37:51;;;;;;;;;8.50;6.25;;;;;;;;5046858;28;45592;-88
2021/08/15 08:40:17;;;;;;;;;8.33;8.00;;;;;;;;5041847;28;45501;-88
2021/08/15 08:42:42;;;;;;;;;8.50;8.00;;;;;;;;5046885;28;45581;-90
2021/08/15 08:45:08;;;;;;;;;10.50;8.25;;;;;;;;5050144;28;45573;-89
2021/08/15 08:47:33;;;;;;;;;10.75;8.00;;;;;;;;5029300;28;47130;-89
2021/08/15 08:49:59;;;;;;;;;12.75;9.25;;;;;;;;5046289;28;45335;-89
2021/08/15 08:52:25;;;;;;;;;8.75;7.00;;;;;;;;5041239;28;45561;-91
2021/08/15 08:54:51;;;;;;;;;9.75;8.00;;;;;;;;5048220;28;45450;-91
2021/08/15 08:57:16;;;;;;;;;9.00;8.50;;;;;;;;5045325;28;45945;-89
2021/08/15 08:59:41;;;;;;;;;8.75;7.50;;;;;;;;5047317;28;45224;-90
2021/08/15 09:02:07;;;;;;;;;9.25;9.25;;;;;;;;5050330;28;45308;-90
2021/08/15 09:04:32;;;;;;;;;10.00;8.67;;;;;;;;5039494;28;45494;-90
2021/08/15 09:07:07;;;;;;;;;9.75;8.00;;;;;;;;5044081;28;45328;-90
2021/08/15 09:09:35;;;;;;;;;9.50;8.50;;;;;;;;5031005;28;46059;-89
2021/08/15 09:12:00;;;;;;;;;4.50;4.25;;;;;;;;5048806;28;45390;-89
2021/08/15 09:14:26;;;;;;;;;9.00;8.33;;;;;;;;5048080;28;45396;-90
2021/08/15 09:16:58;;;;;;;;;10.50;9.00;;;;;;;;5028589;28;45951;-89
2021/08/15 09:19:44;;;;;;;;;8.50;7.50;;;;;;;;5030404;28;45886;-90
2021/08/15 09:22:19;;;;;;;;;9.50;7.50;;;;;;;;5039092;28;45477;-89
2021/08/15 09:24:47;;;;;;;;;9.50;8.50;;;;;;;;5041439;28;45575;-89
2021/08/15 09:27:17;;;;;;;;;12.00;9.00;;;;;;;;5043864;28;47387;-90
2021/08/15 09:29:42;;;;;;;;;10.25;9.00;;;;;;;;5046786;28;45605;-90
2021/08/15 09:32:08;;;;;;;;;7.33;7.33;;;;;;;;5050497;28;45628;-90
2021/08/15 09:34:33;;;;;;;;;13.67;10.67;;;;;;;;5035108;28;45372;-92
2021/08/15 09:37:00;;;;;;;;;11.33;8.67;;;;;;;;5051116;28;46141;-90
2021/08/15 09:39:32;;;;;;;;;11.25;9.50;;;;;;;;5051616;28;45589;-89
2021/08/15 09:41:58;;;;;;;;;10.00;10.00;;;;;;;;5028514;28;45521;-89
2021/08/15 09:44:24;;;;;;;;;9.50;9.50;;;;;;;;5047466;28;45741;-88
2021/08/15 09:47:02;;;;;;;;;13.00;12.25;;;;;;;;5042941;28;45537;-89
2021/08/15 09:49:33;;;;;;;;;12.25;9.00;;;;;;;;5041598;28;46226;-90
2021/08/15 09:51:59;;;;;;;;;11.75;10.75;;;;;;;;5031166;28;45787;-89
2021/08/15 09:54:24;;;;;;;;;13.00;12.25;;;;;;;;5050712;28;45549;-90
2021/08/15 09:56:49;;;;;;;;;13.00;12.00;;;;;;;;5036642;28;48642;-89
2021/08/15 09:59:15;;;;;;;;;16.50;14.00;;;;;;;;5055129;28;45468;-90
2021/08/15 10:01:41;;;;;;;;;16.00;12.00;;;;;;;;5052444;28;45539;-90
2021/08/15 10:04:07;;;;;;;;;16.75;12.75;;;;;;;;5052048;28;45593;-88
2021/08/15 10:06:34;;;;;;;;;12.00;10.75;;;;;;;;5043189;28;46542;-88
2021/08/15 10:09:01;;;;;;;;;16.00;11.00;;;;;;;;5043380;28;45548;-89
2021/08/15 10:11:26;;;;;;;;;13.00;11.25;;;;;;;;5055756;28;45381;-88
2021/08/15 10:13:51;;;;;;;;;17.00;13.00;;;;;;;;5051887;28;45308;-88
2021/08/15 10:16:18;;;;;;;;;19.33;14.33;;;;;;;;5053654;28;45368;-88
2021/08/15 10:18:47;;;;;;;;;15.25;11.00;;;;;;;;5044147;28;45545;-89
2021/08/15 10:21:14;;;;;;;;;15.50;13.75;;;;;;;;5049554;28;45442;-88
2021/08/15 10:23:41;;;;;;;;;17.75;14.50;;;;;;;;5037487;28;45458;-88
2021/08/15 10:26:25;;;;;;;;;14.75;12.00;;;;;;;;5053313;28;45473;-88
2021/08/15 10:28:50;;;;;;;;;15.25;15.00;;;;;;;;5044284;28;46277;-89
2021/08/15 10:31:15;;;;;;;;;14.25;14.25;;;;;;;;5025674;28;45347;-88
2021/08/15 10:33:54;;;;;;;;;16.33;14.00;;;;;;;;5054083;28;45586;-88
2021/08/15 10:36:27;;;;;;;;;13.75;11.75;;;;;;;;5049764;28;46469;-88
2021/08/15 10:38:53;;;;;;;;;13.00;12.50;;;;;;;;5049696;28;45348;-89
2021/08/15 10:41:37;;;;;;;;;15.50;14.00;;;;;;;;5038032;28;45363;-88
2021/08/15 10:44:03;;;;;;;;;15.25;13.50;;;;;;;;5052023;28;45549;-87
2021/08/15 10:46:28;;;;;;;;;14.50;13.00;;;;;;;;5044948;28;45555;-88
2021/08/15 10:48:55;;;;;;;;;18.75;14.00;;;;;;;;5036982;28;45471;-88
2021/08/15 10:51:39;;;;;;;;;15.50;12.50;;;;;;;;5032620;28;45646;-89
2021/08/15 10:54:04;;;;;;;;;16.00;15.25;;;;;;;;5040971;28;45879;-88
2021/08/15 10:56:48;;;;;;;;;14.33;13.00;;;;;;;;5047286;28;45837;-88
2021/08/15 10:59:32;;;;;;;;;12.50;11.75;;;;;;;;5037413;28;45601;-88
2021/08/15 11:02:07;;;;;;;;;14.75;14.00;;;;;;;;5048989;28;45324;-88
2021/08/15 11:04:32;;;;;;;;;17.00;13.75;;;;;;;;5048856;28;45353;-89
2021/08/15 11:06:58;;;;;;;;;14.00;12.25;;;;;;;;5037231;28;48028;-88
2021/08/15 11:09:23;;;;;;;;;12.50;12.00;;;;;;;;5047216;28;45384;-88
2021/08/15 11:12:05;;;;;;;;;11.75;11.75;;;;;;;;5053517;28;45439;-88
2021/08/15 11:14:31;;;;;;;;;12.50;11.00;;;;;;;;5046877;28;45816;-88
2021/08/15 11:16:56;;;;;;;;;13.50;11.00;;;;;;;;5038031;28;46201;-88
2021/08/15 11:19:21;;;;;;;;;14.00;11.00;;;;;;;;5036065;28;45718;-88
2021/08/15 11:22:05;;;;;;;;;14.75;11.00;;;;;;;;5045286;28;45451;-88
2021/08/15 11:24:34;;;;;;;;;15.25;12.00;;;;;;;;5041589;28;45652;-88
2021/08/15 11:27:00;;;;;;;;;9.00;9.00;;;;;;;;5035059;28;48181;-88
2021/08/15 11:29:26;;;;;;;;;14.50;13.00;;;;;;;;5037641;28;45603;-88
2021/08/15 11:31:52;;;;;;;;;10.50;10.25;;;;;;;;5051840;28;45465;-88
2021/08/15 11:34:17;;;;;;;;;12.50;10.75;;;;;;;;5053164;28;45654;-88
2021/08/15 11:36:42;;;;;;;;;10.00;10.00;;;;;;;;5053878;28;46407;-89
2021/08/15 11:39:08;;;;;;;;;10.00;9.25;;;;;;;;5033326;28;46761;-88
2021/08/15 11:41:34;;;;;;;;;11.00;8.75;;;;;;;;5054727;28;45438;-88
2021/08/15 11:43:59;;;;;;;;;10.25;9.75;;;;;;;;5052349;28;45509;-88
2021/08/15 11:46:24;;;;;;;;;12.33;10.00;;;;;;;;5053169;28;45514;-88
2021/08/15 11:48:50;;;;;;;;;11.50;10.00;;;;;;;;5044350;28;45382;-88
2021/08/15 11:51:15;;;;;;;;;13.50;10.25;;;;;;;;5049970;28;45519;-88
2021/08/15 11:53:43;;;;;;;;;10.00;8.33;;;;;;;;5053980;28;45364;-89
2021/08/15 11:56:16;;;;;;;;;9.50;8.00;;;;;;;;5051747;28;47340;-89
2021/08/15 11:58:51;;;;;;;;;12.50;9.50;;;;;;;;5041335;28;45423;-89
2021/08/15 12:01:17;;;;;;;;;10.50;9.50;;;;;;;;5047755;28;45584;-88
2021/08/15 12:03:54;;;;;;;;;11.00;10.00;;;;;;;;5041507;28;45733;-88
2021/08/15 12:06:19;;;;;;;;;11.50;11.50;;;;;;;;5039566;28;46635;-88
2021/08/15 12:08:45;;;;;;;;;13.75;11.00;;;;;;;;5034761;28;45594;-89
2021/08/15 12:11:25;;;;;;;;;12.67;11.67;;;;;;;;5036630;28;45391;-88
2021/08/15 12:13:52;;;;;;;;;9.75;9.75;;;;;;;;5052306;28;45422;-89
2021/08/15 12:16:21;;;;;;;;;12.00;10.25;;;;;;;;5051210;28;46861;-89
2021/08/15 12:18:46;;;;;;;;;13.75;9.75;;;;;;;;5041399;28;45899;-89
2021/08/15 12:21:17;;;;;;;;;13.33;10.00;;;;;;;;5054251;28;44825;-89
2021/08/15 12:24:02;;;;;;;;;9.00;8.50;;;;;;;;5051863;28;45322;-88
2021/08/15 12:26:28;;;;;;;;;10.75;9.50;;;;;;;;5043232;28;45531;-89
2021/08/15 12:28:58;;;;;;;;;10.75;10.25;;;;;;;;5039402;28;50652;-88
2021/08/15 12:31:25;;;;;;;;;13.75;10.25;;;;;;;;5052325;28;45381;-86
2021/08/15 12:34:02;;;;;;;;;10.50;9.50;;;;;;;;5043779;28;45395;-86
2021/08/15 12:36:29;;;;;;;;;8.25;8.25;;;;;;;;5048499;28;46464;-87
2021/08/15 12:39:03;;;;;;;;;9.75;8.25;;;;;;;;5057124;28;45332;-88
2021/08/15 12:41:30;;;;;;;;;11.50;8.25;;;;;;;;5043928;28;45304;-89
2021/08/15 12:44:24;;;;;;;;;9.50;9.50;;;;;;;;5043134;28;45504;-88
2021/08/15 12:47:16;;;;;;;;;10.75;9.00;;;;;;;;5030423;28;46446;-88
2021/08/15 12:49:45;;;;;;;;;12.00;12.00;;;;;;;;5045970;28;45435;-88
2021/08/15 12:52:10;;;;;;;;;9.00;8.00;;;;;;;;5056582;28;45391;-89
2021/08/15 12:54:55;;;;;;;;;9.00;8.50;;;;;;;;5056118;28;45587;-89
2021/08/15 12:57:21;;;;;;;;;10.75;9.00;;;;;;;;5049696;28;45647;-88
2021/08/15 12:59:46;;;;;;;;;9.00;8.00;;;;;;;;5050253;28;45476;-88
2021/08/15 13:02:11;;;;;;;;;11.00;9.00;;;;;;;;5055815;28;45299;-89
2021/08/15 13:04:36;;;;;;;;;10.33;10.00;;;;;;;;5050653;28;45625;-89
2021/08/15 13:07:01;;;;;;;;;11.33;9.67;;;;;;;;5046964;28;52237;-88
2021/08/15 13:09:27;;;;;;;;;8.25;7.00;;;;;;;;5051756;28;45454;-88
2021/08/15 13:11:52;;;;;;;;;11.67;9.00;;;;;;;;5035816;28;45441;-89
2021/08/15 13:14:17;;;;;;;;;14.00;11.00;;;;;;;;5037997;28;45538;-88
2021/08/15 13:16:42;;;;;;;;;11.00;9.00;;;;;;;;5051085;28;45379;-89
2021/08/15 13:19:07;;;;;;;;;9.67;9.33;;;;;;;;5048581;28;45430;-88
2021/08/15 13:21:33;;;;;;;;;7.33;7.33;;;;;;;;5051684;28;50359;-88
2021/08/15 13:23:58;;;;;;;;;9.00;9.00;;;;;;;;5054792;28;45396;-87
2021/08/15 13:26:23;;;;;;;;;9.00;9.00;;;;;;;;5046879;28;47886;-89
2021/08/15 13:28:48;;;;;;;;;11.75;9.00;;;;;;;;5059031;28;45564;-88
2021/08/15 13:31:13;;;;;;;;;11.67;10.33;;;;;;;;5030942;27;45406;-88
2021/08/15 13:33:39;;;;;;;;;10.00;9.25;;;;;;;;5044532;28;45577;-88
2021/08/15 13:36:04;;;;;;;;;10.67;10.67;;;;;;;;5037062;28;47218;-89
2021/08/15 13:38:29;;;;;;;;;10.00;9.25;;;;;;;;5056791;28;45706;-89
2021/08/15 13:40:54;;;;;;;;;8.33;8.33;;;;;;;;5053941;28;45435;-89
2021/08/15 13:43:20;;;;;;;;;12.00;9.00;;;;;;;;5052141;28;45481;-89
2021/08/15 13:45:45;;;;;;;;;9.00;9.00;;;;;;;;5037835;28;47872;-88
2021/08/15 13:48:10;;;;;;;;;9.50;9.50;;;;;;;;5042923;28;45507;-88
2021/08/15 13:50:35;;;;;;;;;10.00;9.00;;;;;;;;5056552;28;45430;-88
2021/08/15 13:53:00;;;;;;;;;11.00;7.00;;;;;;;;5055469;28;45468;-88
2021/08/15 13:55:26;;;;;;;;;10.00;9.00;;;;;;;;5035927;28;46358;-89
2021/08/15 13:57:51;;;;;;;;;9.00;7.75;;;;;;;;5055784;28;45300;-89
2021/08/15 14:00:16;;;;;;;;;11.00;9.00;;;;;;;;5054154;28;45694;-89
2021/08/15 14:02:42;;;;;;;;;13.25;10.25;;;;;;;;5048016;28;45270;-89
2021/08/15 14:05:07;;;;;;;;;10.25;8.25;;;;;;;;5045009;28;48935;-88
2021/08/15 14:07:33;;;;;;;;;10.50;10.50;;;;;;;;5051988;28;45632;-88
2021/08/15 14:09:58;;;;;;;;;10.50;8.50;;;;;;;;5030237;28;45718;-88
2021/08/15 14:12:23;;;;;;;;;7.00;6.33;;;;;;;;5048696;28;48860;-88
2021/08/15 14:14:49;;;;;;;;;13.75;12.75;;;;;;;;5047350;28;46255;-88
2021/08/15 14:17:16;;;;;;;;;11.50;10.00;;;;;;;;5044400;28;45317;-88
2021/08/15 14:19:41;;;;;;;;;13.50;11.50;;;;;;;;5064844;28;45503;-88